Sam Robinson

Chief Scout - Austin FC
3 Dec 2028
Sunday
Process

Personality

Adaptability (11) Ambition (17) Controversy (20) Loyalty (1) Pressure (19) Professionalism (8) Sportsmanship (9) Temperament (6)

Profile

Coaching Style Democratic
License Continental B
Determination 4
Man Management 9
Motivating 4
Discipline 10
Job Satisfaction
100%
Fatigue
0%
Role Chief Scout
Wage 38.1K p/w
Contract 14.03.2030

Performance

Behaviour Good
Training Effectiveness
45%
Player Development
60%
Injury Prevention
60%
Tactical Implementation
25%

Recent Events

Attended a recruitment meeting now
Assessed a player 7d ago
Attended a recruitment meeting 7d ago
Recommended a transfer target 7d ago
Assessed a player 7d ago
Assessed a player 7d ago
Assessed a player 7d ago
Assessed a player 7d ago

Currently Monitoring

193
Player Club Status Ability Confidence Watched Last Observed Latest Vote
Somtochuwku Ezenabo Kwara United Active 106 / 107 40% 3 29.11.2028 -
Nazif Abdullahi Nasarawa United Active 83 / 80 40% 2 29.11.2028 -
Mateo Faure BATE Active 99 / 98 40% 2 29.11.2028 -
Ezra Mayers West Ham United Active 137 / 133 40% 6 26.11.2028 -
Aytor Herrera Mineros de Guayana Active 93 / 94 40% 2 26.11.2028 -
Peyton Miller New England Revolution Active 113 / 121 40% 3 26.11.2028 -
Estanislao López Colón Active 94 / 96 40% 5 24.11.2028 -
Jack Shorrock Port Vale Active 110 / 110 40% 4 24.11.2028 -
Rene Hrvatin Istra 1961 Active 116 / 113 40% 2 24.11.2028 -
Tyler Fletcher Rotherham United Active 118 / 126 40% 4 23.11.2028 -
Andrija Bulatović Chamois Niortais Active 144 / 131 40% 1 23.11.2028 -
Thulani Manyama Portland Timbers Active 112 / 122 40% 1 23.11.2028 -
Celías Ingenthron Platense Active 117 / 124 40% 2 22.11.2028 -
Jim Thwaites Manchester United Active 122 / 119 40% 3 20.11.2028 -
Joachim Kayi Sanda Southampton Active 119 / 129 40% 2 20.11.2028 -
José Neto Benfica Active 136 / 133 40% 1 20.11.2028 -
Ivan Borges Defensores Active 88 / 87 40% 5 19.11.2028 -
Ronan Kpakio AC Milan Active 136 / 129 40% 11 19.11.2028 -
Toheeb Adebayo Shooting Stars Active 80 / 80 40% 3 19.11.2028 -
Diego León Rotherham United Active 118 / 136 40% 4 17.11.2028 -
Tiago Gordillo San Miguel Active 88 / 95 40% 7 16.11.2028 -
Joel Ezra Enyimba Active 106 / 106 40% 6 15.11.2028 -
Anderson Acevedo Bogota Active 86 / 90 40% 2 15.11.2028 -
Óscar Hinojosa Metropolitanos Active 78 / 88 40% 3 15.11.2028 -
Riquelme Thompson-Jones Accrington Stanley Active 120 / 118 40% 8 14.11.2028 -
Moses Sesay Southampton Active 126 / 120 40% 3 14.11.2028 -
Daniel Banjaqui Benfica Active 135 / 133 40% 2 14.11.2028 -
Dovydas Sasnauskas Sheffield United Active 104 / 115 40% 2 10.11.2028 -
Luis Otávio Orlando City Active 116 / 128 40% 3 10.11.2028 -
Onyeuche Ujunwa Ikorodu City Active 84 / 90 40% 3 09.11.2028 -
Gideon Manaseh Ikorodu City Active 88 / 103 40% 10 06.11.2028 -
Iestyn Jones Swansea City Active 101 / 102 40% 1 06.11.2028 -
Sebastian Rodriguez Houston Dynamo Active 126 / 121 40% 3 31.10.2028 -
Felipe Varela Trujillanos Active 90 / 101 40% 2 30.10.2028 -
Tobías Ramírez River Plate Active 125 / 129 40% 5 29.10.2028 -
George Beaumont Millwall Active 97 / 105 40% 1 28.10.2028 -
Johan Solstad-Nøis Tromso Active 93 / 97 40% 1 27.10.2028 -
Snyder Brunell Seattle Sounders Active 89 / 102 40% 1 27.10.2028 -
Callum Olusesi Tottenham Active 119 / 134 40% 5 25.10.2028 -
Jan Cedilnik Chikhura Active 85 / 95 40% 4 21.10.2028 -
Alfie Cresswell Leeds United Active 102 / 116 40% 1 21.10.2028 -
Bendito Mantato Manchester United Active 112 / 127 40% 1 19.10.2028 -
Felipe Pujol Vélez Active 117 / 120 40% 1 16.10.2028 -
Aaron Branca Artigas Active 74 / 82 40% 4 15.10.2028 -
Agustín Medina Lanús Active 121 / 128 40% 2 14.10.2028 -
Máximo Magnoli Ferro Carril Oeste Active 92 / 98 40% 2 13.10.2028 -
Jun'ai Byfield Tottenham Active 111 / 123 40% 1 09.10.2028 -
Lautaro Dufur Juventud Active 106 / 109 40% 1 08.10.2028 -
Lucas Camejo River Plate Active 88 / 93 40% 3 07.10.2028 -
Máximo Munarriz San Telmo Active 95 / 110 40% 5 05.10.2028 -
Benito Paklayan Alvarado Active 82 / 96 40% 1 05.10.2028 -
Tyson Pearce St. Louis CITY SC Active 101 / 99 40% 1 02.10.2028 -
Francisco Machis Llaneros Active 93 / 92 40% 3 01.10.2028 -
Christian McFarlane Manchester City Active 124 / 125 40% 1 29.09.2028 -
Leo Shahar Newcastle United Active 118 / 121 40% 1 28.09.2028 -
Aboubacar Meïté Afrique Foot Elite Active 82 / 96 40% 1 27.09.2028 -
Matías Magdaleno Estudiantes Active 115 / 115 40% 1 27.09.2028 -
Louis Page Leicester City Active 135 / 137 40% 1 20.09.2028 -
Landon Emenalo Chelsea Active 126 / 122 40% 2 18.09.2028 -
Mateo Caballero Defensor Sporting Active 109 / 105 40% 2 06.09.2028 -
Jack Fletcher Manchester United Active 116 / 124 40% 1 05.09.2028 -
Kwesi Sorotu Badori Berekum Chelsea Active 102 / 105 40% 1 07.08.2028 -
Elias Mansor Millwall Active 95 / 117 40% 1 07.08.2028 -
Jorthy Mokio ADO Den Haag Active 121 / 139 40% 2 22.02.2028 -
Ramadan Ashour Sporting Cristal Active 120 / 120 67% 1 14.02.2028 Approve
Josh Nichols Oldham Athletic Rejected 117 / 124 40% 6 12.02.2028 Reject
Josh Acheampong Everton Active 148 / 154 40% 5 12.02.2028 -
Matias Siltanen Malmo FF Active 126 / 133 40% 4 10.01.2028 -
Honest Ahanor Atalanta Active 143 / 142 40% 1 07.01.2028 -
Christos Mouzakitis Hull City Active 142 / 141 40% 5 04.01.2028 -
Teboho Mokoena Black Aces Active 97 / 94 40% 1 03.01.2028 -
Caleb Yirenkyi Coventry City Active 142 / 138 40% 6 02.01.2028 -
Trey Nyoni Rotherham United Active 149 / 143 40% 6 31.12.2027 -
Matvey Bardachev Zenit Active 116 / 120 40% 1 31.12.2027 -
Luka Vušković Tottenham Active 136 / 153 40% 5 23.12.2027 -
Giovanni Leoni Lincoln City Active 130 / 145 40% 2 22.12.2027 -
Andrey Ivlev Nizhniy Novgorod Active 125 / 118 40% 1 20.12.2027 -
Ayden Heaven Portsmouth Active 148 / 153 40% 6 18.12.2027 -
Lucas Bergvall Tottenham Active 137 / 156 40% 4 17.12.2027 -
Rasmus Nehrman Gefle Active 66 / 89 40% 1 07.12.2027 -
Malick Yalcouyé Brighton Active 132 / 137 40% 2 08.11.2027 -
Godwin Oham Warri Wolves Active 78 / 96 40% 2 28.10.2027 -
Juan Diego Perdomo Depor Active 80 / 86 40% 2 24.10.2027 -
Edvard Pettersen Sandefjord Active 93 / 111 40% 1 21.10.2027 -
Matthew Litherland Harrogate Town Active 100 / 125 40% 2 07.10.2027 -
Colin Guske Orlando City Active 93 / 100 40% 1 05.10.2027 -
Victor Hernandez Santa Fe Active 130 / 124 40% 1 15.09.2027 -
Mpho Khethang FC Diarra Active 81 / 87 40% 1 13.09.2027 -
Jacob Wright Norwich City Active 135 / 136 40% 1 12.09.2027 -
Olaniyi Saheed Kwara United Active 110 / 96 40% 1 12.09.2027 -
Isaías Silva Miramar Misiones Active 72 / 93 40% 1 06.09.2027 -
Esteban de Lima Tacuarembo Active 90 / 102 40% 1 06.09.2027 -
Tyrese Spicer Orlando City Active 104 / 99 58% 1 19.07.2027 -
Ishmael Addo Heart of Lions Active 76 / 99 40% 4 06.07.2027 -
Calum Agius Crewe Alexandra Active 97 / 92 40% 1 06.07.2027 -
Riley Owen Stevenage Active 96 / 103 40% 2 04.07.2027 -
Othmane Maamma Watford Active 136 / 131 40% 5 03.07.2027 -
Lander Astiazarán Real Sociedad Active 115 / 123 40% 2 03.07.2027 -
Oscar Schwartau Norwich City Active 114 / 126 40% 6 02.07.2027 -
Sindre Walle Egeli Udinese Active 121 / 142 40% 3 02.07.2027 -
Araphat Mohammed Ashanti Gold Active 101 / 106 40% 2 01.07.2027 -
Zane Albarus Shrewsbury Town Active 98 / 111 40% 2 01.07.2027 -
Leo Castledine Middlesbrough Active 116 / 126 40% 2 29.06.2027 -
Nana Nuhu WAFA Active 77 / 84 40% 2 29.06.2027 -
Gladson Adjei WAFA Active 82 / 82 40% 2 27.06.2027 -
Mustapha Umar Kano Pillars Active 99 / 93 40% 1 18.06.2027 -
Ryan Oné Sheffield United Active 102 / 129 40% 4 16.06.2027 -
Abubakar Garba Nasarawa United Active 97 / 93 40% 1 16.06.2027 -
Daniel Awuni Aduana Stars Active 109 / 102 40% 1 13.06.2027 -
Gomolemo Kekana Maritzburg United Active 93 / 111 40% 1 13.06.2027 -
Mohamadou Kanté Crawley Town Active 104 / 126 40% 2 11.06.2027 -
Mateus Mané Burnley Active 146 / 142 40% 1 09.06.2027 -
Maren Kefas Plateau United Active 101 / 104 40% 2 07.06.2027 -
Bazoumana Touré Newcastle United Active 145 / 135 40% 1 03.06.2027 -
Ethan Williams Peterborough United Active 118 / 113 40% 1 01.06.2027 -
Luke Baartman Ajax Cape Town Active 98 / 111 40% 2 27.05.2027 -
Romelle Donovan Brentford Active 123 / 133 40% 2 23.05.2027 -
Bade Aluko Leicester City Active 119 / 129 40% 1 21.05.2027 -
Kwandile Gumemde US Bougouni Active 65 / 88 40% 1 17.05.2027 -
Kirill Glebov CSKA Moscow Active 125 / 139 40% 1 12.05.2027 -
Edwin Asamoah Berekum Chelsea Active 97 / 79 40% 3 09.05.2027 -
Monty Batlhabane Polokwane City Active 84 / 108 40% 1 30.03.2027 -
Morris Duggan Minnesota United FC Active 98 / 102 55% 1 01.03.2027 -
Elijah Adebayo Luton Town Active 136 / 127 40% 1 10.02.2027 -
Dardan Shabanhaxhaj Rubin Active 110 / 108 40% 1 05.02.2027 -
Rivaldo Mkhize Black Aces Active 69 / 90 40% 1 03.02.2027 -
George Hoddle Cambridge United Active 100 / 84 40% 1 03.02.2027 -
Gady Beyuku Blackburn Rovers Active 105 / 111 40% 1 01.02.2027 -
David Romero Parma Active 118 / 115 40% 1 29.01.2027 -
Simphiwe Selepe Orlando Pirates Active 106 / 112 40% 1 28.01.2027 -
Kwadwo Duah Ludogorets Active 125 / 128 40% 1 27.01.2027 -
Thalente Mbatha Orlando Pirates Active 120 / 119 40% 3 25.01.2027 -
Gianluca Scamacca Atalanta Active 148 / 145 40% 1 20.01.2027 -
Evidence Makgopa Orlando Pirates Active 106 / 113 40% 1 19.01.2027 -
Nicolò Zaniolo Udinese Active 132 / 136 40% 1 17.01.2027 -
Arthur Gomes Dinamo Moscow Active 109 / 120 40% 1 17.01.2027 -
Oleksii Hutsuliak Polissia Active 143 / 116 40% 1 16.01.2027 -
Martin Sekulić Ural Active 111 / 119 40% 1 15.01.2027 -
Armstrong Oko-Flex Levski Active 120 / 132 40% 1 13.01.2027 -
Matteo Rover Reggiana Active 108 / 113 40% 1 13.01.2027 -
Mustapha Sangaré Levski Active 107 / 117 40% 1 12.01.2027 -
Oswin Appollis Orlando Pirates Active 123 / 128 40% 3 11.01.2027 -
Nkosingiphile Ngcobo Kaizer Chiefs Active 118 / 113 40% 1 10.01.2027 -
Gonzalo Gamarra Floriana Active 100 / 96 40% 1 10.01.2027 -
Marcelo Allende Mamelodi Sundowns Active 125 / 136 40% 4 08.01.2027 -
Talles Magno New York City Active 134 / 128 40% 5 06.01.2027 -
Bradley Zwane SuperSport United Active 103 / 112 40% 3 06.01.2027 -
Erick Dolly Black Aces Active 98 / 117 40% 1 06.01.2027 -
Mikhail Ignatov Sochi Active 119 / 126 40% 1 04.01.2027 -
Thabang Matuludi Polokwane City Active 97 / 111 40% 3 01.01.2027 -
Reda Khadra Qarabag Active 147 / 141 40% 1 31.12.2026 -
Juan Bezerra Zamalek Active 124 / 110 40% 1 29.12.2026 -
Wandile Duba ASO Chlef Active 115 / 93 40% 1 29.12.2026 -
Yahaya Ibrahim Plateau United Active 80 / 100 40% 2 28.12.2026 -
Cheveyo Tsawa Club Brugge Active 118 / 117 40% 2 26.12.2026 -
Khama Mokoena Free State Stars Active 91 / 94 40% 2 26.12.2026 -
Vyacheslav Grulev Nizhniy Novgorod Active 116 / 115 40% 1 26.12.2026 -
Matej Trusa DAC Dunajska Streda Active 120 / 109 40% 1 26.12.2026 -
Berna CSKA 1948 Active 114 / 116 40% 1 22.12.2026 -
Chico Banza Zamalek Active 108 / 109 40% 1 20.12.2026 -
Petar Musa FC Dallas Active 146 / 135 40% 1 17.12.2026 -
Mathys Tel Tottenham Active 147 / 140 40% 2 15.12.2026 -
Suleiman Camara Slovan Bratislava Active 103 / 118 40% 1 05.12.2026 -
Yeangel Montero Naxxar Lions Active 106 / 90 40% 2 04.12.2026 -
Thulani Mabaso Platinum Stars Active 86 / 110 40% 2 29.11.2026 -
Malebogo Modise Polokwane City Active 91 / 94 40% 1 27.11.2026 -
Daniel Kyerewaa Reading Active 102 / 115 40% 1 22.11.2026 -
Brooklyn Poggenpoel Maritzburg United Active 90 / 112 40% 1 21.11.2026 -
Bongani Zungu Ajax Cape Town Active 130 / 114 40% 3 19.11.2026 -
Leif Davis Ipswich Town Active 148 / 126 40% 2 16.11.2026 -
Ronaldo Maarman University of Pretoria Active 115 / 97 40% 2 15.11.2026 -
Goodman Mosele Chippa United Active 112 / 109 40% 1 10.11.2026 -
Thabiso Monyane Kaizer Chiefs Active 112 / 94 40% 1 08.11.2026 -
Lebogang Manyama SuperSport United Active 122 / 107 40% 1 06.11.2026 -
Olalekan Adeleke Remo Stars Active 73 / 100 40% 2 04.11.2026 -
Cemran Dansin Orlando Pirates Active 121 / 127 40% 2 04.11.2026 -
Jens Petter Hauge Bodo/Glimt Active 130 / 145 40% 1 04.11.2026 -
Mandla Kekana Ajax Cape Town Active 127 / 120 40% 1 04.11.2026 -
Antonio Galeano Remo Stars Active 117 / 135 40% 1 23.10.2026 -
Bénie Traoré New York City Active 129 / 121 40% 1 22.10.2026 -
Jesus Ferreira Seattle Sounders Active 116 / 126 40% 1 19.10.2026 -
Tadeo Allende Inter Miami CF Active 110 / 127 40% 2 18.10.2026 -
Diego Luna Real Salt Lake Active 117 / 118 40% 1 16.10.2026 -
Marco Pašalić Orlando City Active 116 / 129 40% 1 13.10.2026 -
Philippe Ndinga Philadelphia Union Active 119 / 112 40% 1 13.10.2026 -
Joe Johnson Luton Town Active 93 / 95 40% 1 11.10.2026 -
Gabriel Lekan Kun Khalifat Active 104 / 95 40% 1 10.10.2026 -
Emmanuel Mathias Ikorodu City Active 83 / 103 40% 1 10.10.2026 -
Paul Samson Plateau United Active 119 / 95 40% 1 08.10.2026 -
Law McCabe Middlesbrough Active 114 / 117 40% 1 11.09.2026 -
Chibueze Oputa Rangers International Active 105 / 91 40% 1 09.09.2026 -
Lenny Agbaire Rotherham United Active 94 / 100 40% 1 08.09.2026 -
Timo Werner San Jose Earthquakes Active 127 / 127 40% 1 01.08.2026 -